sensor_id;sensor_type;location;lat;lon;timestamp;pressure;altitude;pressure_sealevel;temperature;humidity
16190;BME280;41754;51.498;7.540;2023-03-03T00:00:55;101009.75;;;9.60;41.79
16190;BME280;41754;51.498;7.540;2023-03-03T00:03:24;101013.50;;;8.91;42.56
16190;BME280;41754;51.498;7.540;2023-03-03T00:05:52;101016.25;;;8.86;42.63
16190;BME280;41754;51.498;7.540;2023-03-03T00:08:21;101024.47;;;8.91;41.79
16190;BME280;41754;51.498;7.540;2023-03-03T00:10:49;101023.78;;;9.15;42.52
16190;BME280;41754;51.498;7.540;2023-03-03T00:13:21;101015.22;;;9.66;41.26
16190;BME280;41754;51.498;7.540;2023-03-03T00:15:51;101022.13;;;8.54;43.95
16190;BME280;41754;51.498;7.540;2023-03-03T00:18:29;101015.53;;;9.20;42.37
16190;BME280;41754;51.498;7.540;2023-03-03T00:20:59;101006.19;;;9.21;42.36
16190;BME280;41754;51.498;7.540;2023-03-03T00:23:34;101016.09;;;9.17;42.73
16190;BME280;41754;51.498;7.540;2023-03-03T00:26:15;101007.44;;;9.73;40.66
16190;BME280;41754;51.498;7.540;2023-03-03T00:28:46;101009.31;;;9.77;41.08
16190;BME280;41754;51.498;7.540;2023-03-03T00:31:17;101017.47;;;9.14;42.21
16190;BME280;41754;51.498;7.540;2023-03-03T00:33:48;101014.09;;;9.67;41.42
16190;BME280;41754;51.498;7.540;2023-03-03T00:36:25;101019.19;;;9.05;42.13
16190;BME280;41754;51.498;7.540;2023-03-03T00:39:09;101018.16;;;9.74;41.43
16190;BME280;41754;51.498;7.540;2023-03-03T00:41:38;101019.28;;;9.34;42.04
16190;BME280;41754;51.498;7.540;2023-03-03T00:44:33;101023.03;;;9.48;41.67
16190;BME280;41754;51.498;7.540;2023-03-03T00:47:27;101017.59;;;9.38;41.22
16190;BME280;41754;51.498;7.540;2023-03-03T00:53:04;101020.94;;;8.86;42.89
16190;BME280;41754;51.498;7.540;2023-03-03T00:55:33;101022.34;;;8.68;43.27
16190;BME280;41754;51.498;7.540;2023-03-03T00:58:02;101024.00;;;8.64;43.16
16190;BME280;41754;51.498;7.540;2023-03-03T01:00:35;101022.97;;;9.14;42.57
16190;BME280;41754;51.498;7.540;2023-03-03T01:03:07;101022.84;;;8.85;42.95
16190;BME280;41754;51.498;7.540;2023-03-03T01:05:36;101018.38;;;9.04;42.70
16190;BME280;41754;51.498;7.540;2023-03-03T01:08:04;101018.34;;;9.10;41.59
16190;BME280;41754;51.498;7.540;2023-03-03T01:10:35;101012.09;;;9.38;41.75
16190;BME280;41754;51.498;7.540;2023-03-03T01:13:04;101018.06;;;9.50;41.37
16190;BME280;41754;51.498;7.540;2023-03-03T01:15:32;101026.16;;;8.82;43.50
16190;BME280;41754;51.498;7.540;2023-03-03T01:18:00;101022.22;;;9.03;42.61
16190;BME280;41754;51.498;7.540;2023-03-03T01:20:30;101023.59;;;9.45;41.83
16190;BME280;41754;51.498;7.540;2023-03-03T01:22:58;101029.94;;;9.80;40.83
16190;BME280;41754;51.498;7.540;2023-03-03T01:25:26;101024.47;;;8.91;42.70
16190;BME280;41754;51.498;7.540;2023-03-03T01:27:54;101022.28;;;8.93;42.31
16190;BME280;41754;51.498;7.540;2023-03-03T01:30:23;101024.66;;;8.35;43.81
16190;BME280;41754;51.498;7.540;2023-03-03T01:32:52;101019.41;;;8.39;43.47
16190;BME280;41754;51.498;7.540;2023-03-03T01:35:20;101029.06;;;8.11;44.19
16190;BME280;41754;51.498;7.540;2023-03-03T01:37:49;101028.38;;;8.65;43.12
16190;BME280;41754;51.498;7.540;2023-03-03T01:40:19;101014.66;;;9.29;42.13
16190;BME280;41754;51.498;7.540;2023-03-03T01:42:47;101009.66;;;9.37;41.78
16190;BME280;41754;51.498;7.540;2023-03-03T01:45:18;101010.28;;;8.79;42.65
16190;BME280;41754;51.498;7.540;2023-03-03T01:47:51;101020.06;;;8.90;42.45
16190;BME280;41754;51.498;7.540;2023-03-03T01:50:29;101015.81;;;9.18;42.13
16190;BME280;41754;51.498;7.540;2023-03-03T01:53:04;101022.44;;;9.12;42.40
16190;BME280;41754;51.498;7.540;2023-03-03T01:55:35;101032.50;;;9.27;41.80
16190;BME280;41754;51.498;7.540;2023-03-03T01:58:06;101027.44;;;9.00;42.16
16190;BME280;41754;51.498;7.540;2023-03-03T02:00:37;101024.00;;;8.69;43.24
16190;BME280;41754;51.498;7.540;2023-03-03T02:03:05;101024.00;;;8.64;43.13
16190;BME280;41754;51.498;7.540;2023-03-03T02:05:34;101015.69;;;8.94;43.03
16190;BME280;41754;51.498;7.540;2023-03-03T02:08:04;101008.25;;;9.39;42.14
16190;BME280;41754;51.498;7.540;2023-03-03T02:10:34;101010.13;;;9.04;42.26
16190;BME280;41754;51.498;7.540;2023-03-03T02:13:02;100998.00;;;9.50;41.50
16190;BME280;41754;51.498;7.540;2023-03-03T02:15:32;100996.38;;;8.40;43.80
16190;BME280;41754;51.498;7.540;2023-03-03T02:18:05;101002.22;;;9.42;42.25
16190;BME280;41754;51.498;7.540;2023-03-03T02:20:43;101002.84;;;9.29;41.52
16190;BME280;41754;51.498;7.540;2023-03-03T02:23:20;101009.81;;;9.50;41.29
16190;BME280;41754;51.498;7.540;2023-03-03T02:26:03;101020.00;;;9.05;42.47
16190;BME280;41754;51.498;7.540;2023-03-03T02:28:34;101014.47;;;9.11;42.47
16190;BME280;41754;51.498;7.540;2023-03-03T02:31:07;101016.50;;;8.90;42.75
16190;BME280;41754;51.498;7.540;2023-03-03T02:33:40;101014.72;;;8.55;43.51
16190;BME280;41754;51.498;7.540;2023-03-03T02:36:11;101015.75;;;8.64;43.63
16190;BME280;41754;51.498;7.540;2023-03-03T02:38:43;101016.25;;;8.91;42.91
16190;BME280;41754;51.498;7.540;2023-03-03T02:41:20;101020.91;;;9.74;41.26
16190;BME280;41754;51.498;7.540;2023-03-03T02:43:55;101014.78;;;9.48;41.32
16190;BME280;41754;51.498;7.540;2023-03-03T02:46:25;101006.59;;;9.38;41.81
16190;BME280;41754;51.498;7.540;2023-03-03T02:48:53;101008.53;;;9.38;41.42
16190;BME280;41754;51.498;7.540;2023-03-03T02:51:21;101009.00;;;9.11;42.22
16190;BME280;41754;51.498;7.540;2023-03-03T02:53:49;101006.41;;;9.69;41.43
16190;BME280;41754;51.498;7.540;2023-03-03T02:56:18;101015.34;;;9.01;42.57
16190;BME280;41754;51.498;7.540;2023-03-03T02:58:46;101013.63;;;9.15;42.45
16190;BME280;41754;51.498;7.540;2023-03-03T03:01:14;101003.78;;;9.09;42.43
16190;BME280;41754;51.498;7.540;2023-03-03T03:03:42;101010.16;;;8.99;42.66
16190;BME280;41754;51.498;7.540;2023-03-03T03:06:11;101011.50;;;9.46;41.26
16190;BME280;41754;51.498;7.540;2023-03-03T03:08:40;101007.59;;;9.52;41.60
16190;BME280;41754;51.498;7.540;2023-03-03T03:11:08;101004.22;;;8.82;42.81
16190;BME280;41754;51.498;7.540;2023-03-03T03:13:38;101009.00;;;9.50;41.69
16190;BME280;41754;51.498;7.540;2023-03-03T03:16:06;101015.81;;;9.57;41.10
16190;BME280;41754;51.498;7.540;2023-03-03T03:18:34;101020.38;;;9.33;41.65
16190;BME280;41754;51.498;7.540;2023-03-03T03:21:07;101010.63;;;9.90;40.70
16190;BME280;41754;51.498;7.540;2023-03-03T03:23:35;101016.66;;;9.14;41.54
16190;BME280;41754;51.498;7.540;2023-03-03T03:26:05;101016.28;;;9.64;41.00
16190;BME280;41754;51.498;7.540;2023-03-03T03:28:33;101013.75;;;8.95;42.26
16190;BME280;41754;51.498;7.540;2023-03-03T03:31:05;101008.34;;;8.80;42.85
16190;BME280;41754;51.498;7.540;2023-03-03T03:33:33;101014.63;;;8.85;42.62
16190;BME280;41754;51.498;7.540;2023-03-03T03:36:02;101024.97;;;8.98;43.00
16190;BME280;41754;51.498;7.540;2023-03-03T03:38:33;101023.53;;;9.11;42.26
16190;BME280;41754;51.498;7.540;2023-03-03T03:41:04;101025.47;;;9.55;41.95
16190;BME280;41754;51.498;7.540;2023-03-03T03:43:33;101033.78;;;9.45;42.00
16190;BME280;41754;51.498;7.540;2023-03-03T03:46:03;101038.75;;;8.93;43.02
16190;BME280;41754;51.498;7.540;2023-03-03T03:48:32;101039.44;;;9.14;42.37
16190;BME280;41754;51.498;7.540;2023-03-03T03:51:02;101041.06;;;8.51;43.56
16190;BME280;41754;51.498;7.540;2023-03-03T03:53:31;101043.28;;;8.38;43.69
16190;BME280;41754;51.498;7.540;2023-03-03T03:55:59;101042.16;;;8.50;43.81
16190;BME280;41754;51.498;7.540;2023-03-03T03:58:28;101036.31;;;8.71;42.89
16190;BME280;41754;51.498;7.540;2023-03-03T04:01:03;101039.91;;;9.31;41.96
16190;BME280;41754;51.498;7.540;2023-03-03T04:03:34;101046.31;;;8.27;43.71
16190;BME280;41754;51.498;7.540;2023-03-03T04:06:05;101047.69;;;9.58;42.07
16190;BME280;41754;51.498;7.540;2023-03-03T04:08:33;101041.50;;;8.88;42.55
16190;BME280;41754;51.498;7.540;2023-03-03T04:11:02;101043.69;;;8.76;42.99
16190;BME280;41754;51.498;7.540;2023-03-03T04:13:30;101043.31;;;9.08;42.34
16190;BME280;41754;51.498;7.540;2023-03-03T04:16:04;101046.16;;;9.42;41.75
16190;BME280;41754;51.498;7.540;2023-03-03T04:18:33;101046.44;;;8.76;42.79
16190;BME280;41754;51.498;7.540;2023-03-03T04:21:02;101043.19;;;8.64;43.07
16190;BME280;41754;51.498;7.540;2023-03-03T04:23:31;101052.06;;;9.15;42.71
16190;BME280;41754;51.498;7.540;2023-03-03T04:26:00;101051.53;;;9.13;41.48
16190;BME280;41754;51.498;7.540;2023-03-03T04:28:28;101050.53;;;9.77;40.93
16190;BME280;41754;51.498;7.540;2023-03-03T04:30:57;101046.41;;;9.46;41.00
16190;BME280;41754;51.498;7.540;2023-03-03T04:33:29;101047.59;;;9.29;41.62
16190;BME280;41754;51.498;7.540;2023-03-03T04:35:58;101050.94;;;9.21;42.00
16190;BME280;41754;51.498;7.540;2023-03-03T04:38:26;101053.84;;;8.75;42.63
16190;BME280;41754;51.498;7.540;2023-03-03T04:40:55;101045.59;;;9.79;40.94
16190;BME280;41754;51.498;7.540;2023-03-03T04:43:24;101053.59;;;9.76;40.84
16190;BME280;41754;51.498;7.540;2023-03-03T04:45:53;101056.31;;;8.77;42.02
16190;BME280;41754;51.498;7.540;2023-03-03T04:48:22;101048.69;;;8.79;42.58
16190;BME280;41754;51.498;7.540;2023-03-03T04:50:51;101043.41;;;8.77;42.83
16190;BME280;41754;51.498;7.540;2023-03-03T04:53:19;101043.53;;;9.61;41.27
16190;BME280;41754;51.498;7.540;2023-03-03T04:55:49;101047.16;;;9.51;41.21
16190;BME280;41754;51.498;7.540;2023-03-03T04:58:19;101054.75;;;9.64;41.21
16190;BME280;41754;51.498;7.540;2023-03-03T05:00:52;101041.81;;;8.82;42.51
16190;BME280;41754;51.498;7.540;2023-03-03T05:03:20;101045.69;;;9.69;40.88
16190;BME280;41754;51.498;7.540;2023-03-03T05:05:48;101040.94;;;8.91;42.05
16190;BME280;41754;51.498;7.540;2023-03-03T05:08:18;101039.28;;;8.90;42.39
16190;BME280;41754;51.498;7.540;2023-03-03T05:10:45;101045.75;;;9.20;42.20
16190;BME280;41754;51.498;7.540;2023-03-03T05:13:13;101052.38;;;9.09;41.36
16190;BME280;41754;51.498;7.540;2023-03-03T05:15:42;101055.22;;;8.78;42.07
16190;BME280;41754;51.498;7.540;2023-03-03T05:18:10;101047.09;;;9.22;41.83
16190;BME280;41754;51.498;7.540;2023-03-03T05:20:39;101049.19;;;9.75;40.86
16190;BME280;41754;51.498;7.540;2023-03-03T05:23:07;101034.84;;;8.99;41.96
16190;BME280;41754;51.498;7.540;2023-03-03T05:25:36;101051.94;;;9.35;41.17
16190;BME280;41754;51.498;7.540;2023-03-03T05:28:04;101041.00;;;8.81;42.01
16190;BME280;41754;51.498;7.540;2023-03-03T05:30:32;101051.00;;;9.11;41.57
16190;BME280;41754;51.498;7.540;2023-03-03T05:33:00;101051.50;;;9.62;40.64
16190;BME280;41754;51.498;7.540;2023-03-03T05:35:28;101053.28;;;8.89;41.41
16190;BME280;41754;51.498;7.540;2023-03-03T05:37:56;101041.72;;;9.46;41.41
16190;BME280;41754;51.498;7.540;2023-03-03T05:40:25;101049.72;;;9.82;40.92
16190;BME280;41754;51.498;7.540;2023-03-03T05:42:54;101050.22;;;10.18;39.79
16190;BME280;41754;51.498;7.540;2023-03-03T05:45:22;101045.50;;;10.23;39.77
16190;BME280;41754;51.498;7.540;2023-03-03T05:47:51;101049.78;;;9.32;41.46
16190;BME280;41754;51.498;7.540;2023-03-03T05:50:22;101049.50;;;9.73;40.57
16190;BME280;41754;51.498;7.540;2023-03-03T05:52:51;101051.19;;;10.03;40.51
16190;BME280;41754;51.498;7.540;2023-03-03T05:55:19;101051.44;;;10.36;39.21
16190;BME280;41754;51.498;7.540;2023-03-03T05:57:47;101051.09;;;10.42;39.09
16190;BME280;41754;51.498;7.540;2023-03-03T06:00:17;101050.28;;;9.79;40.02
16190;BME280;41754;51.498;7.540;2023-03-03T06:02:45;101052.81;;;10.04;39.68
16190;BME280;41754;51.498;7.540;2023-03-03T06:05:13;101058.66;;;9.58;41.21
16190;BME280;41754;51.498;7.540;2023-03-03T06:07:42;101069.03;;;9.72;40.42
16190;BME280;41754;51.498;7.540;2023-03-03T06:10:11;101063.91;;;9.94;39.96
16190;BME280;41754;51.498;7.540;2023-03-03T06:12:40;101074.91;;;9.89;40.41
16190;BME280;41754;51.498;7.540;2023-03-03T06:15:09;101068.16;;;9.76;39.67
16190;BME280;41754;51.498;7.540;2023-03-03T06:17:38;101072.88;;;9.26;40.80
16190;BME280;41754;51.498;7.540;2023-03-03T06:20:07;101078.69;;;9.98;40.53
16190;BME280;41754;51.498;7.540;2023-03-03T06:22:36;101071.78;;;10.35;39.24
16190;BME280;41754;51.498;7.540;2023-03-03T06:25:04;101075.41;;;10.59;38.70
16190;BME280;41754;51.498;7.540;2023-03-03T06:27:32;101080.47;;;9.84;39.79
16190;BME280;41754;51.498;7.540;2023-03-03T06:30:00;101085.97;;;10.18;39.18
16190;BME280;41754;51.498;7.540;2023-03-03T06:32:28;101086.97;;;10.32;39.12
16190;BME280;41754;51.498;7.540;2023-03-03T06:34:57;101091.63;;;9.98;39.47
16190;BME280;41754;51.498;7.540;2023-03-03T06:37:28;101090.66;;;10.17;39.60
16190;BME280;41754;51.498;7.540;2023-03-03T06:39:56;101096.66;;;9.46;40.32
16190;BME280;41754;51.498;7.540;2023-03-03T06:42:23;101106.38;;;9.28;40.90
16190;BME280;41754;51.498;7.540;2023-03-03T06:44:51;101099.66;;;9.89;40.37
16190;BME280;41754;51.498;7.540;2023-03-03T06:47:19;101097.91;;;10.03;39.71
16190;BME280;41754;51.498;7.540;2023-03-03T06:49:47;101107.13;;;9.39;40.09
16190;BME280;41754;51.498;7.540;2023-03-03T06:52:19;101114.38;;;10.08;39.39
16190;BME280;41754;51.498;7.540;2023-03-03T06:54:49;101120.44;;;9.12;40.92
16190;BME280;41754;51.498;7.540;2023-03-03T06:57:25;101102.88;;;10.01;39.22
16190;BME280;41754;51.498;7.540;2023-03-03T06:59:56;101113.47;;;10.18;39.50
16190;BME280;41754;51.498;7.540;2023-03-03T07:02:24;101110.28;;;10.40;38.81
16190;BME280;41754;51.498;7.540;2023-03-03T07:04:52;101103.56;;;10.17;39.59
16190;BME280;41754;51.498;7.540;2023-03-03T07:07:23;101111.00;;;10.16;38.48
16190;BME280;41754;51.498;7.540;2023-03-03T07:09:52;101118.81;;;9.65;39.29
16190;BME280;41754;51.498;7.540;2023-03-03T07:12:22;101116.91;;;9.60;40.32
16190;BME280;41754;51.498;7.540;2023-03-03T07:15:00;101118.72;;;9.80;40.11
16190;BME280;41754;51.498;7.540;2023-03-03T07:17:29;101117.34;;;10.46;39.15
16190;BME280;41754;51.498;7.540;2023-03-03T07:19:57;101120.28;;;9.47;40.23
16190;BME280;41754;51.498;7.540;2023-03-03T07:22:27;101116.28;;;9.24;40.73
16190;BME280;41754;51.498;7.540;2023-03-03T07:24:58;101124.84;;;9.67;39.68
16190;BME280;41754;51.498;7.540;2023-03-03T07:27:29;101132.13;;;9.87;39.13
16190;BME280;41754;51.498;7.540;2023-03-03T07:30:15;101141.00;;;9.74;40.04
16190;BME280;41754;51.498;7.540;2023-03-03T07:32:45;101148.25;;;9.59;40.54
16190;BME280;41754;51.498;7.540;2023-03-03T07:35:34;101150.59;;;10.20;39.27
16190;BME280;41754;51.498;7.540;2023-03-03T07:38:15;101143.75;;;9.74;39.83
16190;BME280;41754;51.498;7.540;2023-03-03T07:40:47;101145.00;;;10.31;38.42
16190;BME280;41754;51.498;7.540;2023-03-03T07:43:26;101144.66;;;10.03;39.14
16190;BME280;41754;51.498;7.540;2023-03-03T07:46:01;101152.09;;;9.98;39.55
16190;BME280;41754;51.498;7.540;2023-03-03T07:48:34;101156.34;;;9.25;40.56
16190;BME280;41754;51.498;7.540;2023-03-03T07:51:10;101155.72;;;10.61;38.47
16190;BME280;41754;51.498;7.540;2023-03-03T07:53:40;101150.88;;;10.14;38.19
16190;BME280;41754;51.498;7.540;2023-03-03T07:56:16;101161.25;;;9.88;39.54
16190;BME280;41754;51.498;7.540;2023-03-03T07:58:47;101168.06;;;9.96;39.27
16190;BME280;41754;51.498;7.540;2023-03-03T08:01:28;101168.84;;;10.01;38.60
16190;BME280;41754;51.498;7.540;2023-03-03T08:04:00;101170.56;;;10.65;37.89
16190;BME280;41754;51.498;7.540;2023-03-03T08:06:44;101169.44;;;10.37;38.62
16190;BME280;41754;51.498;7.540;2023-03-03T08:09:47;101172.81;;;9.85;39.22
16190;BME280;41754;51.498;7.540;2023-03-03T08:12:43;101176.28;;;9.51;39.71
16190;BME280;41754;51.498;7.540;2023-03-03T08:15:22;101176.16;;;9.77;39.74
16190;BME280;41754;51.498;7.540;2023-03-03T08:17:52;101171.06;;;8.80;41.19
16190;BME280;41754;51.498;7.540;2023-03-03T08:20:43;101179.59;;;10.03;39.38
16190;BME280;41754;51.498;7.540;2023-03-03T08:23:12;101181.31;;;10.33;38.68
16190;BME280;41754;51.498;7.540;2023-03-03T08:25:42;101182.94;;;10.34;38.70
16190;BME280;41754;51.498;7.540;2023-03-03T08:28:11;101188.28;;;10.54;38.86
16190;BME280;41754;51.498;7.540;2023-03-03T08:30:40;101188.28;;;10.54;38.14
16190;BME280;41754;51.498;7.540;2023-03-03T08:33:08;101191.03;;;9.71;39.22
16190;BME280;41754;51.498;7.540;2023-03-03T08:35:36;101198.91;;;9.92;39.48
16190;BME280;41754;51.498;7.540;2023-03-03T08:38:05;101196.63;;;9.50;40.14
16190;BME280;41754;51.498;7.540;2023-03-03T08:40:33;101192.38;;;10.57;38.26
16190;BME280;41754;51.498;7.540;2023-03-03T08:43:03;101200.44;;;10.48;38.17
16190;BME280;41754;51.498;7.540;2023-03-03T08:45:32;101205.47;;;10.41;38.44
16190;BME280;41754;51.498;7.540;2023-03-03T08:48:00;101203.31;;;10.33;38.30
16190;BME280;41754;51.498;7.540;2023-03-03T08:50:31;101214.94;;;10.88;37.23
16190;BME280;41754;51.498;7.540;2023-03-03T08:53:00;101207.47;;;9.21;39.63
16190;BME280;41754;51.498;7.540;2023-03-03T08:55:27;101206.94;;;10.28;38.49
16190;BME280;41754;51.498;7.540;2023-03-03T08:57:55;101207.44;;;10.93;37.49
16190;BME280;41754;51.498;7.540;2023-03-03T09:00:24;101208.75;;;10.38;38.30
16190;BME280;41754;51.498;7.540;2023-03-03T09:02:53;101216.09;;;10.81;37.95
16190;BME280;41754;51.498;7.540;2023-03-03T09:05:22;101214.50;;;10.75;37.94
16190;BME280;41754;51.498;7.540;2023-03-03T09:07:51;101211.22;;;10.39;38.12
16190;BME280;41754;51.498;7.540;2023-03-03T09:10:21;101213.84;;;10.20;38.21
16190;BME280;41754;51.498;7.540;2023-03-03T09:12:53;101211.06;;;10.26;38.29
16190;BME280;41754;51.498;7.540;2023-03-03T09:15:27;101218.78;;;10.87;37.03
16190;BME280;41754;51.498;7.540;2023-03-03T09:17:57;101216.94;;;10.48;37.71
16190;BME280;41754;51.498;7.540;2023-03-03T09:20:35;101216.28;;;10.61;37.72
16190;BME280;41754;51.498;7.540;2023-03-03T09:23:29;101215.81;;;10.83;36.90
16190;BME280;41754;51.498;7.540;2023-03-03T09:26:17;101217.81;;;10.43;37.77
16190;BME280;41754;51.498;7.540;2023-03-03T09:28:48;101208.16;;;11.04;37.58
16190;BME280;41754;51.498;7.540;2023-03-03T09:31:26;101213.69;;;11.04;37.29
16190;BME280;41754;51.498;7.540;2023-03-03T09:33:54;101205.00;;;10.92;37.17
16190;BME280;41754;51.498;7.540;2023-03-03T09:36:26;101212.19;;;10.59;37.54
16190;BME280;41754;51.498;7.540;2023-03-03T09:38:55;101213.69;;;11.04;36.95
16190;BME280;41754;51.498;7.540;2023-03-03T09:41:44;101216.00;;;10.92;36.48
16190;BME280;41754;51.498;7.540;2023-03-03T09:47:30;101223.31;;;10.77;37.40
16190;BME280;41754;51.498;7.540;2023-03-03T09:50:07;101229.38;;;11.03;37.19
16190;BME280;41754;51.498;7.540;2023-03-03T09:52:45;101224.19;;;10.97;37.34
16190;BME280;41754;51.498;7.540;2023-03-03T09:55:38;101231.50;;;10.82;37.93
16190;BME280;41754;51.498;7.540;2023-03-03T09:58:37;101235.44;;;11.29;37.00
16190;BME280;41754;51.498;7.540;2023-03-03T10:01:32;101243.34;;;11.60;36.64
16190;BME280;41754;51.498;7.540;2023-03-03T10:04:14;101244.75;;;11.33;37.18
16190;BME280;41754;51.498;7.540;2023-03-03T10:06:48;101242.88;;;11.29;37.25
16190;BME280;41754;51.498;7.540;2023-03-03T10:09:43;101237.53;;;11.61;36.57
16190;BME280;41754;51.498;7.540;2023-03-03T10:12:19;101242.28;;;11.08;37.09
16190;BME280;41754;51.498;7.540;2023-03-03T10:15:21;101244.50;;;11.06;37.50
16190;BME280;41754;51.498;7.540;2023-03-03T10:17:52;101249.22;;;11.00;37.17
16190;BME280;41754;51.498;7.540;2023-03-03T10:20:34;101244.41;;;12.25;35.50
16190;BME280;41754;51.498;7.540;2023-03-03T10:23:19;101250.16;;;11.67;36.17
16190;BME280;41754;51.498;7.540;2023-03-03T10:25:53;101261.41;;;11.71;36.36
16190;BME280;41754;51.498;7.540;2023-03-03T10:28:31;101255.41;;;11.88;35.63
16190;BME280;41754;51.498;7.540;2023-03-03T10:31:11;101256.13;;;11.27;36.31
16190;BME280;41754;51.498;7.540;2023-03-03T10:33:50;101254.97;;;11.99;35.73
16190;BME280;41754;51.498;7.540;2023-03-03T10:36:41;101265.78;;;11.96;36.01
16190;BME280;41754;51.498;7.540;2023-03-03T10:42:27;101257.44;;;11.58;36.04
16190;BME280;41754;51.498;7.540;2023-03-03T10:45:11;101268.06;;;11.17;37.19
16190;BME280;41754;51.498;7.540;2023-03-03T10:47:58;101265.63;;;11.39;37.07
16190;BME280;41754;51.498;7.540;2023-03-03T10:50:33;101271.38;;;11.91;36.12
16190;BME280;41754;51.498;7.540;2023-03-03T10:53:16;101267.19;;;11.22;36.84
16190;BME280;41754;51.498;7.540;2023-03-03T10:55:56;101262.28;;;10.56;38.15
16190;BME280;41754;51.498;7.540;2023-03-03T10:58:52;101255.81;;;11.57;37.05
16190;BME280;41754;51.498;7.540;2023-03-03T11:01:31;101256.09;;;11.03;37.25
16190;BME280;41754;51.498;7.540;2023-03-03T11:06:56;101257.06;;;11.17;36.52
16190;BME280;41754;51.498;7.540;2023-03-03T11:10:01;101253.09;;;11.28;37.13
16190;BME280;41754;51.498;7.540;2023-03-03T11:12:40;101257.81;;;11.94;35.70
16190;BME280;41754;51.498;7.540;2023-03-03T11:15:23;101252.16;;;12.42;34.50
16190;BME280;41754;51.498;7.540;2023-03-03T11:18:09;101251.19;;;12.14;35.24
16190;BME280;41754;51.498;7.540;2023-03-03T11:20:43;101256.72;;;12.14;35.56
16190;BME280;41754;51.498;7.540;2023-03-03T11:23:30;101256.84;;;12.04;35.49
16190;BME280;41754;51.498;7.540;2023-03-03T11:26:08;101262.50;;;11.22;36.40
16190;BME280;41754;51.498;7.540;2023-03-03T11:28:51;101256.69;;;11.95;35.12
16190;BME280;41754;51.498;7.540;2023-03-03T11:31:30;101257.16;;;12.03;34.79
16190;BME280;41754;51.498;7.540;2023-03-03T11:34:11;101258.19;;;12.07;35.20
16190;BME280;41754;51.498;7.540;2023-03-03T11:36:44;101253.09;;;13.03;33.75
16190;BME280;41754;51.498;7.540;2023-03-03T11:39:17;101251.16;;;12.33;34.57
16190;BME280;41754;51.498;7.540;2023-03-03T11:41:56;101252.75;;;12.02;36.08
16190;BME280;41754;51.498;7.540;2023-03-03T11:44:31;101252.44;;;12.60;34.46
16190;BME280;41754;51.498;7.540;2023-03-03T11:47:04;101253.72;;;13.13;33.85
16190;BME280;41754;51.498;7.540;2023-03-03T11:49:37;101241.25;;;13.30;33.13
16190;BME280;41754;51.498;7.540;2023-03-03T11:52:19;101234.69;;;11.90;34.28
16190;BME280;41754;51.498;7.540;2023-03-03T11:54:51;101236.44;;;12.56;34.27
16190;BME280;41754;51.498;7.540;2023-03-03T11:57:28;101230.00;;;12.80;33.89
16190;BME280;41754;51.498;7.540;2023-03-03T12:00:03;101234.75;;;12.61;34.57
16190;BME280;41754;51.498;7.540;2023-03-03T12:02:54;101234.22;;;12.77;34.15
16190;BME280;41754;51.498;7.540;2023-03-03T12:05:33;101238.16;;;12.71;34.17
16190;BME280;41754;51.498;7.540;2023-03-03T12:08:14;101229.13;;;12.98;33.59
16190;BME280;41754;51.498;7.540;2023-03-03T12:10:49;101227.19;;;12.99;34.40
16190;BME280;41754;51.498;7.540;2023-03-03T12:13:28;101230.19;;;13.57;33.09
16190;BME280;41754;51.498;7.540;2023-03-03T12:16:04;101222.53;;;13.68;32.24
16190;BME280;41754;51.498;7.540;2023-03-03T12:18:43;101219.53;;;13.64;32.44
16190;BME280;41754;51.498;7.540;2023-03-03T12:21:26;101217.69;;;13.05;33.38
16190;BME280;41754;51.498;7.540;2023-03-03T12:24:18;101218.50;;;13.33;33.37
16190;BME280;41754;51.498;7.540;2023-03-03T12:26:53;101215.44;;;13.48;32.61
16190;BME280;41754;51.498;7.540;2023-03-03T12:29:34;101206.44;;;13.56;33.13
16190;BME280;41754;51.498;7.540;2023-03-03T12:32:16;101214.31;;;12.24;34.62
16190;BME280;41754;51.498;7.540;2023-03-03T12:34:51;101203.44;;;13.11;33.50
16190;BME280;41754;51.498;7.540;2023-03-03T12:37:36;101205.69;;;12.12;34.81
16190;BME280;41754;51.498;7.540;2023-03-03T12:40:13;101207.13;;;12.93;33.93
16190;BME280;41754;51.498;7.540;2023-03-03T12:43:02;101210.22;;;12.40;34.13
16190;BME280;41754;51.498;7.540;2023-03-03T12:45:46;101212.16;;;13.19;33.11
16190;BME280;41754;51.498;7.540;2023-03-03T12:48:21;101207.47;;;13.33;32.76
16190;BME280;41754;51.498;7.540;2023-03-03T12:50:56;101207.19;;;13.98;31.93
16190;BME280;41754;51.498;7.540;2023-03-03T12:53:40;101213.25;;;12.57;33.38
16190;BME280;41754;51.498;7.540;2023-03-03T12:56:12;101207.78;;;12.71;34.23
16190;BME280;41754;51.498;7.540;2023-03-03T12:58:50;101214.22;;;13.54;32.70
16190;BME280;41754;51.498;7.540;2023-03-03T13:01:35;101212.88;;;13.10;33.49
16190;BME280;41754;51.498;7.540;2023-03-03T13:04:07;101207.63;;;12.95;33.57
16190;BME280;41754;51.498;7.540;2023-03-03T13:06:41;101206.22;;;13.11;33.27
16190;BME280;41754;51.498;7.540;2023-03-03T13:09:29;101207.66;;;13.23;33.21
16190;BME280;41754;51.498;7.540;2023-03-03T13:12:27;101198.97;;;13.02;32.95
16190;BME280;41754;51.498;7.540;2023-03-03T13:15:03;101198.72;;;13.81;32.65
16190;BME280;41754;51.498;7.540;2023-03-03T13:17:38;101200.50;;;14.35;31.51
16190;BME280;41754;51.498;7.540;2023-03-03T13:20:18;101200.53;;;13.99;31.54
16190;BME280;41754;51.498;7.540;2023-03-03T13:22:52;101200.69;;;13.53;31.79
16190;BME280;41754;51.498;7.540;2023-03-03T13:25:33;101195.41;;;14.28;31.05
16190;BME280;41754;51.498;7.540;2023-03-03T13:28:07;101202.19;;;14.67;31.42
16190;BME280;41754;51.498;7.540;2023-03-03T13:30:40;101193.59;;;14.24;31.98
16190;BME280;41754;51.498;7.540;2023-03-03T13:33:16;101198.22;;;13.79;31.87
16190;BME280;41754;51.498;7.540;2023-03-03T13:35:50;101201.22;;;13.68;31.55
16190;BME280;41754;51.498;7.540;2023-03-03T13:38:24;101194.28;;;14.52;30.90
16190;BME280;41754;51.498;7.540;2023-03-03T13:40:59;101190.47;;;14.93;30.29